sensor_id;sensor_type;location;lat;lon;timestamp;P1;durP1;ratioP1;P2;durP2;ratioP2
50779;SDS011;36748;37.428;-121.972;2023-03-20T00:01:52;0.63;;;0.50;;
50779;SDS011;36748;37.428;-121.972;2023-03-20T00:04:18;0.30;;;0.30;;
50779;SDS011;36748;37.428;-121.972;2023-03-20T00:06:45;0.38;;;0.22;;
50779;SDS011;36748;37.428;-121.972;2023-03-20T00:09:11;1.65;;;0.30;;
50779;SDS011;36748;37.428;-121.972;2023-03-20T00:11:47;0.52;;;0.40;;
50779;SDS011;36748;37.428;-121.972;2023-03-20T00:14:16;1.52;;;0.28;;
50779;SDS011;36748;37.428;-121.972;2023-03-20T00:16:44;0.50;;;0.32;;
50779;SDS011;36748;37.428;-121.972;2023-03-20T00:19:13;0.38;;;0.30;;
50779;SDS011;36748;37.428;-121.972;2023-03-20T00:21:42;2.00;;;0.45;;
50779;SDS011;36748;37.428;-121.972;2023-03-20T00:24:12;0.95;;;0.35;;
50779;SDS011;36748;37.428;-121.972;2023-03-20T00:26:40;0.73;;;0.40;;
50779;SDS011;36748;37.428;-121.972;2023-03-20T00:29:09;0.75;;;0.30;;
50779;SDS011;36748;37.428;-121.972;2023-03-20T00:31:48;0.47;;;0.30;;
50779;SDS011;36748;37.428;-121.972;2023-03-20T00:34:15;0.17;;;0.17;;
50779;SDS011;36748;37.428;-121.972;2023-03-20T00:36:43;0.60;;;0.32;;
50779;SDS011;36748;37.428;-121.972;2023-03-20T00:39:10;0.55;;;0.50;;
50779;SDS011;36748;37.428;-121.972;2023-03-20T00:46:52;0.40;;;0.20;;
50779;SDS011;36748;37.428;-121.972;2023-03-20T00:49:25;0.40;;;0.28;;
50779;SDS011;36748;37.428;-121.972;2023-03-20T00:51:58;0.70;;;0.40;;
50779;SDS011;36748;37.428;-121.972;2023-03-20T00:54:26;0.82;;;0.38;;
50779;SDS011;36748;37.428;-121.972;2023-03-20T00:57:10;1.45;;;0.20;;
50779;SDS011;36748;37.428;-121.972;2023-03-20T00:59:58;0.30;;;0.25;;
50779;SDS011;36748;37.428;-121.972;2023-03-20T01:02:29;1.75;;;0.40;;
50779;SDS011;36748;37.428;-121.972;2023-03-20T01:04:56;0.43;;;0.25;;
50779;SDS011;36748;37.428;-121.972;2023-03-20T01:07:22;0.32;;;0.32;;
50779;SDS011;36748;37.428;-121.972;2023-03-20T01:09:49;0.52;;;0.22;;
50779;SDS011;36748;37.428;-121.972;2023-03-20T01:12:15;0.30;;;0.30;;
50779;SDS011;36748;37.428;-121.972;2023-03-20T01:14:42;2.22;;;0.40;;
50779;SDS011;36748;37.428;-121.972;2023-03-20T01:17:18;1.95;;;0.50;;
50779;SDS011;36748;37.428;-121.972;2023-03-20T01:19:45;2.88;;;0.65;;
50779;SDS011;36748;37.428;-121.972;2023-03-20T01:22:12;5.13;;;0.32;;
50779;SDS011;36748;37.428;-121.972;2023-03-20T01:24:42;3.35;;;0.38;;
50779;SDS011;36748;37.428;-121.972;2023-03-20T01:27:12;0.82;;;0.40;;
50779;SDS011;36748;37.428;-121.972;2023-03-20T01:29:40;2.90;;;0.40;;
50779;SDS011;36748;37.428;-121.972;2023-03-20T01:32:14;2.03;;;0.30;;
50779;SDS011;36748;37.428;-121.972;2023-03-20T01:34:41;0.90;;;0.30;;
50779;SDS011;36748;37.428;-121.972;2023-03-20T01:37:11;1.25;;;0.40;;
50779;SDS011;36748;37.428;-121.972;2023-03-20T01:39:41;0.40;;;0.30;;
50779;SDS011;36748;37.428;-121.972;2023-03-20T01:42:10;0.93;;;0.30;;
50779;SDS011;36748;37.428;-121.972;2023-03-20T01:44:39;2.45;;;0.30;;
50779;SDS011;36748;37.428;-121.972;2023-03-20T01:47:16;1.13;;;0.40;;
50779;SDS011;36748;37.428;-121.972;2023-03-20T01:52:44;2.58;;;0.20;;
50779;SDS011;36748;37.428;-121.972;2023-03-20T01:55:13;2.15;;;0.40;;
50779;SDS011;36748;37.428;-121.972;2023-03-20T01:57:39;0.20;;;0.10;;
50779;SDS011;36748;37.428;-121.972;2023-03-20T02:00:09;1.05;;;0.28;;
50779;SDS011;36748;37.428;-121.972;2023-03-20T02:02:36;2.00;;;0.38;;
50779;SDS011;36748;37.428;-121.972;2023-03-20T02:05:05;0.73;;;0.28;;
50779;SDS011;36748;37.428;-121.972;2023-03-20T02:07:34;3.75;;;0.20;;
50779;SDS011;36748;37.428;-121.972;2023-03-20T02:10:02;1.02;;;0.20;;
50779;SDS011;36748;37.428;-121.972;2023-03-20T02:12:32;0.45;;;0.20;;
50779;SDS011;36748;37.428;-121.972;2023-03-20T02:14:58;0.63;;;0.15;;
50779;SDS011;36748;37.428;-121.972;2023-03-20T02:17:25;1.90;;;0.30;;
50779;SDS011;36748;37.428;-121.972;2023-03-20T02:20:02;0.35;;;0.25;;
50779;SDS011;36748;37.428;-121.972;2023-03-20T02:45:28;14.52;;;8.85;;
50779;SDS011;36748;37.428;-121.972;2023-03-20T02:50:54;19.08;;;11.30;;
50779;SDS011;36748;37.428;-121.972;2023-03-20T02:56:13;25.05;;;13.40;;
50779;SDS011;36748;37.428;-121.972;2023-03-20T03:01:26;30.25;;;15.85;;
50779;SDS011;36748;37.428;-121.972;2023-03-20T03:04:04;28.88;;;15.13;;
50779;SDS011;36748;37.428;-121.972;2023-03-20T03:06:43;31.17;;;16.23;;
50779;SDS011;36748;37.428;-121.972;2023-03-20T03:09:18;32.60;;;16.33;;
50779;SDS011;36748;37.428;-121.972;2023-03-20T03:11:58;32.90;;;17.65;;
50779;SDS011;36748;37.428;-121.972;2023-03-20T03:14:59;33.95;;;17.67;;
50779;SDS011;36748;37.428;-121.972;2023-03-20T03:17:30;31.60;;;17.13;;
50779;SDS011;36748;37.428;-121.972;2023-03-20T03:20:00;31.77;;;17.20;;
50779;SDS011;36748;37.428;-121.972;2023-03-20T03:22:30;32.35;;;17.27;;
50779;SDS011;36748;37.428;-121.972;2023-03-20T03:24:59;33.50;;;17.08;;
50779;SDS011;36748;37.428;-121.972;2023-03-20T03:27:31;31.92;;;17.10;;
50779;SDS011;36748;37.428;-121.972;2023-03-20T03:30:02;29.40;;;15.38;;
50779;SDS011;36748;37.428;-121.972;2023-03-20T03:32:42;30.05;;;16.63;;
50779;SDS011;36748;37.428;-121.972;2023-03-20T03:35:14;27.17;;;15.27;;
50779;SDS011;36748;37.428;-121.972;2023-03-20T03:37:57;29.50;;;16.48;;
50779;SDS011;36748;37.428;-121.972;2023-03-20T03:45:53;29.17;;;15.73;;
50779;SDS011;36748;37.428;-121.972;2023-03-20T03:48:32;27.65;;;15.30;;
50779;SDS011;36748;37.428;-121.972;2023-03-20T03:51:04;31.25;;;15.35;;
50779;SDS011;36748;37.428;-121.972;2023-03-20T03:53:34;29.48;;;15.30;;
50779;SDS011;36748;37.428;-121.972;2023-03-20T03:56:04;27.05;;;14.45;;
50779;SDS011;36748;37.428;-121.972;2023-03-20T03:58:37;29.52;;;15.50;;
50779;SDS011;36748;37.428;-121.972;2023-03-20T04:01:06;27.80;;;14.82;;
50779;SDS011;36748;37.428;-121.972;2023-03-20T04:03:38;29.67;;;14.70;;
50779;SDS011;36748;37.428;-121.972;2023-03-20T04:06:07;27.50;;;14.93;;
50779;SDS011;36748;37.428;-121.972;2023-03-20T04:08:38;28.83;;;14.48;;
50779;SDS011;36748;37.428;-121.972;2023-03-20T04:11:05;26.83;;;13.00;;
50779;SDS011;36748;37.428;-121.972;2023-03-20T04:13:33;26.65;;;14.57;;
50779;SDS011;36748;37.428;-121.972;2023-03-20T04:15:59;26.38;;;14.13;;
50779;SDS011;36748;37.428;-121.972;2023-03-20T04:18:26;25.10;;;13.35;;
50779;SDS011;36748;37.428;-121.972;2023-03-20T04:20:52;24.50;;;13.70;;
50779;SDS011;36748;37.428;-121.972;2023-03-20T04:23:18;26.45;;;13.30;;
50779;SDS011;36748;37.428;-121.972;2023-03-20T04:25:45;23.98;;;12.55;;
50779;SDS011;36748;37.428;-121.972;2023-03-20T04:28:11;22.33;;;12.85;;
50779;SDS011;36748;37.428;-121.972;2023-03-20T04:30:40;23.50;;;13.82;;
50779;SDS011;36748;37.428;-121.972;2023-03-20T04:33:08;24.27;;;12.57;;
50779;SDS011;36748;37.428;-121.972;2023-03-20T04:35:34;22.48;;;12.07;;
50779;SDS011;36748;37.428;-121.972;2023-03-20T04:38:01;21.27;;;11.77;;
50779;SDS011;36748;37.428;-121.972;2023-03-20T04:40:27;25.17;;;11.98;;
50779;SDS011;36748;37.428;-121.972;2023-03-20T04:42:55;22.40;;;12.20;;
50779;SDS011;36748;37.428;-121.972;2023-03-20T04:45:22;23.25;;;11.73;;
50779;SDS011;36748;37.428;-121.972;2023-03-20T04:47:48;21.83;;;11.88;;
50779;SDS011;36748;37.428;-121.972;2023-03-20T04:50:14;19.92;;;11.00;;
50779;SDS011;36748;37.428;-121.972;2023-03-20T04:52:40;21.45;;;11.15;;
50779;SDS011;36748;37.428;-121.972;2023-03-20T04:55:06;20.50;;;11.02;;
50779;SDS011;36748;37.428;-121.972;2023-03-20T04:57:33;16.42;;;10.10;;
50779;SDS011;36748;37.428;-121.972;2023-03-20T04:59:59;18.63;;;10.63;;
50779;SDS011;36748;37.428;-121.972;2023-03-20T05:02:26;17.27;;;10.05;;
50779;SDS011;36748;37.428;-121.972;2023-03-20T05:04:52;17.90;;;9.43;;
50779;SDS011;36748;37.428;-121.972;2023-03-20T05:07:18;15.80;;;10.10;;
50779;SDS011;36748;37.428;-121.972;2023-03-20T05:09:44;23.20;;;10.18;;
50779;SDS011;36748;37.428;-121.972;2023-03-20T05:12:11;16.88;;;9.05;;
50779;SDS011;36748;37.428;-121.972;2023-03-20T05:14:37;16.33;;;9.55;;
50779;SDS011;36748;37.428;-121.972;2023-03-20T05:17:03;14.70;;;8.95;;
50779;SDS011;36748;37.428;-121.972;2023-03-20T05:19:30;14.63;;;9.02;;
50779;SDS011;36748;37.428;-121.972;2023-03-20T05:21:56;14.55;;;8.73;;
50779;SDS011;36748;37.428;-121.972;2023-03-20T05:24:22;15.30;;;9.02;;
50779;SDS011;36748;37.428;-121.972;2023-03-20T05:26:48;16.63;;;9.50;;
50779;SDS011;36748;37.428;-121.972;2023-03-20T05:29:15;13.48;;;7.93;;
50779;SDS011;36748;37.428;-121.972;2023-03-20T05:31:41;14.55;;;8.10;;
50779;SDS011;36748;37.428;-121.972;2023-03-20T05:34:07;15.98;;;8.80;;
50779;SDS011;36748;37.428;-121.972;2023-03-20T05:36:35;15.57;;;8.77;;
50779;SDS011;36748;37.428;-121.972;2023-03-20T05:39:01;14.15;;;8.55;;
50779;SDS011;36748;37.428;-121.972;2023-03-20T05:41:27;12.85;;;7.78;;
50779;SDS011;36748;37.428;-121.972;2023-03-20T05:43:54;14.55;;;8.35;;
50779;SDS011;36748;37.428;-121.972;2023-03-20T05:46:20;13.90;;;7.57;;
50779;SDS011;36748;37.428;-121.972;2023-03-20T05:48:47;13.10;;;8.15;;
50779;SDS011;36748;37.428;-121.972;2023-03-20T05:51:13;12.93;;;7.50;;
50779;SDS011;36748;37.428;-121.972;2023-03-20T05:53:39;13.00;;;7.32;;
50779;SDS011;36748;37.428;-121.972;2023-03-20T05:56:06;11.02;;;6.82;;
50779;SDS011;36748;37.428;-121.972;2023-03-20T05:58:32;13.25;;;8.05;;
50779;SDS011;36748;37.428;-121.972;2023-03-20T06:00:59;11.85;;;6.88;;
50779;SDS011;36748;37.428;-121.972;2023-03-20T06:03:25;10.57;;;6.80;;
50779;SDS011;36748;37.428;-121.972;2023-03-20T06:05:51;9.88;;;6.63;;
50779;SDS011;36748;37.428;-121.972;2023-03-20T06:08:18;10.73;;;6.97;;
50779;SDS011;36748;37.428;-121.972;2023-03-20T06:10:44;11.57;;;6.82;;
50779;SDS011;36748;37.428;-121.972;2023-03-20T06:13:10;11.02;;;6.35;;
50779;SDS011;36748;37.428;-121.972;2023-03-20T06:15:37;11.23;;;6.38;;
50779;SDS011;36748;37.428;-121.972;2023-03-20T06:18:03;10.32;;;6.15;;
50779;SDS011;36748;37.428;-121.972;2023-03-20T06:20:29;11.70;;;6.43;;
50779;SDS011;36748;37.428;-121.972;2023-03-20T06:22:55;10.38;;;6.05;;
50779;SDS011;36748;37.428;-121.972;2023-03-20T06:25:22;9.15;;;5.45;;
50779;SDS011;36748;37.428;-121.972;2023-03-20T06:27:48;10.52;;;6.60;;
50779;SDS011;36748;37.428;-121.972;2023-03-20T06:30:15;9.80;;;5.95;;
50779;SDS011;36748;37.428;-121.972;2023-03-20T06:32:41;7.93;;;5.68;;
50779;SDS011;36748;37.428;-121.972;2023-03-20T06:35:08;9.52;;;5.95;;
50779;SDS011;36748;37.428;-121.972;2023-03-20T06:37:35;8.75;;;5.60;;
50779;SDS011;36748;37.428;-121.972;2023-03-20T06:40:02;9.40;;;5.88;;
50779;SDS011;36748;37.428;-121.972;2023-03-20T06:42:28;8.02;;;5.28;;
50779;SDS011;36748;37.428;-121.972;2023-03-20T06:44:55;9.32;;;5.20;;
50779;SDS011;36748;37.428;-121.972;2023-03-20T06:47:21;7.00;;;4.82;;
50779;SDS011;36748;37.428;-121.972;2023-03-20T06:49:47;8.00;;;5.10;;
50779;SDS011;36748;37.428;-121.972;2023-03-20T06:52:14;8.77;;;5.68;;
50779;SDS011;36748;37.428;-121.972;2023-03-20T06:54:42;8.65;;;5.15;;
50779;SDS011;36748;37.428;-121.972;2023-03-20T06:57:08;7.80;;;5.00;;
50779;SDS011;36748;37.428;-121.972;2023-03-20T06:59:35;8.60;;;5.20;;
50779;SDS011;36748;37.428;-121.972;2023-03-20T07:02:02;8.25;;;5.03;;
50779;SDS011;36748;37.428;-121.972;2023-03-20T07:04:28;7.75;;;5.00;;
50779;SDS011;36748;37.428;-121.972;2023-03-20T07:06:54;8.35;;;4.68;;
50779;SDS011;36748;37.428;-121.972;2023-03-20T07:09:21;7.80;;;5.00;;
50779;SDS011;36748;37.428;-121.972;2023-03-20T07:11:47;7.07;;;4.85;;
50779;SDS011;36748;37.428;-121.972;2023-03-20T07:14:13;6.68;;;4.50;;
50779;SDS011;36748;37.428;-121.972;2023-03-20T07:16:40;7.15;;;4.53;;
50779;SDS011;36748;37.428;-121.972;2023-03-20T07:19:06;6.80;;;4.20;;
50779;SDS011;36748;37.428;-121.972;2023-03-20T07:21:33;5.80;;;4.03;;
50779;SDS011;36748;37.428;-121.972;2023-03-20T07:23:59;7.22;;;4.47;;
50779;SDS011;36748;37.428;-121.972;2023-03-20T07:26:25;7.43;;;4.65;;
50779;SDS011;36748;37.428;-121.972;2023-03-20T07:28:51;6.50;;;4.07;;
50779;SDS011;36748;37.428;-121.972;2023-03-20T07:31:18;5.68;;;4.05;;
50779;SDS011;36748;37.428;-121.972;2023-03-20T07:33:47;6.18;;;4.22;;
50779;SDS011;36748;37.428;-121.972;2023-03-20T07:36:14;5.65;;;3.78;;
50779;SDS011;36748;37.428;-121.972;2023-03-20T07:38:40;5.32;;;3.85;;
50779;SDS011;36748;37.428;-121.972;2023-03-20T07:41:06;5.22;;;3.78;;
50779;SDS011;36748;37.428;-121.972;2023-03-20T07:43:32;6.30;;;3.83;;
50779;SDS011;36748;37.428;-121.972;2023-03-20T07:46:02;6.10;;;3.63;;
50779;SDS011;36748;37.428;-121.972;2023-03-20T07:48:29;6.18;;;3.63;;
50779;SDS011;36748;37.428;-121.972;2023-03-20T07:50:56;5.03;;;3.38;;
50779;SDS011;36748;37.428;-121.972;2023-03-20T07:53:22;5.97;;;3.60;;
50779;SDS011;36748;37.428;-121.972;2023-03-20T07:55:48;5.07;;;3.47;;
50779;SDS011;36748;37.428;-121.972;2023-03-20T07:58:14;5.57;;;3.20;;
50779;SDS011;36748;37.428;-121.972;2023-03-20T08:00:41;5.80;;;3.50;;
50779;SDS011;36748;37.428;-121.972;2023-03-20T08:03:07;5.20;;;3.42;;
50779;SDS011;36748;37.428;-121.972;2023-03-20T08:05:34;5.15;;;3.47;;
50779;SDS011;36748;37.428;-121.972;2023-03-20T08:08:00;4.30;;;2.80;;
50779;SDS011;36748;37.428;-121.972;2023-03-20T08:10:26;4.43;;;3.42;;
50779;SDS011;36748;37.428;-121.972;2023-03-20T08:12:53;4.85;;;3.17;;
50779;SDS011;36748;37.428;-121.972;2023-03-20T08:15:20;4.82;;;2.90;;
50779;SDS011;36748;37.428;-121.972;2023-03-20T08:17:46;3.97;;;2.60;;
50779;SDS011;36748;37.428;-121.972;2023-03-20T08:20:13;4.30;;;2.38;;
50779;SDS011;36748;37.428;-121.972;2023-03-20T08:22:41;4.55;;;2.85;;
50779;SDS011;36748;37.428;-121.972;2023-03-20T08:25:09;3.75;;;2.63;;
50779;SDS011;36748;37.428;-121.972;2023-03-20T08:27:36;3.53;;;2.33;;
50779;SDS011;36748;37.428;-121.972;2023-03-20T08:30:03;4.30;;;2.70;;
50779;SDS011;36748;37.428;-121.972;2023-03-20T08:32:29;4.13;;;2.42;;
50779;SDS011;36748;37.428;-121.972;2023-03-20T08:34:56;5.10;;;3.10;;
50779;SDS011;36748;37.428;-121.972;2023-03-20T08:37:22;3.85;;;2.40;;
50779;SDS011;36748;37.428;-121.972;2023-03-20T08:39:48;4.45;;;2.75;;
50779;SDS011;36748;37.428;-121.972;2023-03-20T08:42:14;3.33;;;2.45;;
50779;SDS011;36748;37.428;-121.972;2023-03-20T08:44:41;4.13;;;2.45;;
50779;SDS011;36748;37.428;-121.972;2023-03-20T08:47:07;4.53;;;2.42;;
50779;SDS011;36748;37.428;-121.972;2023-03-20T08:49:35;3.20;;;2.17;;
50779;SDS011;36748;37.428;-121.972;2023-03-20T08:52:01;3.45;;;2.35;;
50779;SDS011;36748;37.428;-121.972;2023-03-20T08:54:28;2.90;;;2.20;;
50779;SDS011;36748;37.428;-121.972;2023-03-20T08:56:54;4.43;;;2.35;;
50779;SDS011;36748;37.428;-121.972;2023-03-20T08:59:21;3.42;;;2.25;;
50779;SDS011;36748;37.428;-121.972;2023-03-20T09:01:47;4.45;;;2.67;;
50779;SDS011;36748;37.428;-121.972;2023-03-20T09:04:13;2.60;;;2.00;;
50779;SDS011;36748;37.428;-121.972;2023-03-20T09:06:40;3.92;;;2.38;;
50779;SDS011;36748;37.428;-121.972;2023-03-20T09:09:06;2.85;;;2.20;;
50779;SDS011;36748;37.428;-121.972;2023-03-20T09:11:32;2.45;;;2.20;;
50779;SDS011;36748;37.428;-121.972;2023-03-20T09:13:59;3.25;;;2.38;;
50779;SDS011;36748;37.428;-121.972;2023-03-20T09:16:26;2.33;;;1.83;;
50779;SDS011;36748;37.428;-121.972;2023-03-20T09:18:52;3.60;;;1.92;;
50779;SDS011;36748;37.428;-121.972;2023-03-20T09:21:18;2.33;;;2.00;;
50779;SDS011;36748;37.428;-121.972;2023-03-20T09:23:45;2.30;;;1.73;;
50779;SDS011;36748;37.428;-121.972;2023-03-20T09:26:11;2.25;;;1.60;;
50779;SDS011;36748;37.428;-121.972;2023-03-20T09:28:37;2.38;;;1.75;;
50779;SDS011;36748;37.428;-121.972;2023-03-20T09:31:04;1.80;;;1.50;;
50779;SDS011;36748;37.428;-121.972;2023-03-20T09:33:30;3.50;;;1.83;;
50779;SDS011;36748;37.428;-121.972;2023-03-20T09:35:57;3.17;;;1.75;;
50779;SDS011;36748;37.428;-121.972;2023-03-20T09:38:23;2.47;;;1.60;;
50779;SDS011;36748;37.428;-121.972;2023-03-20T09:46:25;2.67;;;1.88;;
50779;SDS011;36748;37.428;-121.972;2023-03-20T09:49:06;2.63;;;1.75;;
50779;SDS011;36748;37.428;-121.972;2023-03-20T09:51:39;1.88;;;1.27;;
50779;SDS011;36748;37.428;-121.972;2023-03-20T09:57:06;1.50;;;1.38;;
50779;SDS011;36748;37.428;-121.972;2023-03-20T09:59:53;1.98;;;1.50;;
50779;SDS011;36748;37.428;-121.972;2023-03-20T10:02:24;1.73;;;1.30;;
50779;SDS011;36748;37.428;-121.972;2023-03-20T10:05:00;1.80;;;1.48;;
50779;SDS011;36748;37.428;-121.972;2023-03-20T10:07:28;2.30;;;1.63;;
50779;SDS011;36748;37.428;-121.972;2023-03-20T10:09:54;2.42;;;1.63;;
50779;SDS011;36748;37.428;-121.972;2023-03-20T10:12:31;1.42;;;1.10;;
50779;SDS011;36748;37.428;-121.972;2023-03-20T10:15:17;1.33;;;1.23;;
50779;SDS011;36748;37.428;-121.972;2023-03-20T10:20:58;2.28;;;1.73;;
50779;SDS011;36748;37.428;-121.972;2023-03-20T10:26:17;1.80;;;1.10;;
50779;SDS011;36748;37.428;-121.972;2023-03-20T10:28:51;5.22;;;1.30;;
50779;SDS011;36748;37.428;-121.972;2023-03-20T10:42:24;1.25;;;0.98;;
50779;SDS011;36748;37.428;-121.972;2023-03-20T10:44:58;2.00;;;1.30;;
50779;SDS011;36748;37.428;-121.972;2023-03-20T10:47:29;1.08;;;0.80;;
50779;SDS011;36748;37.428;-121.972;2023-03-20T10:50:05;1.58;;;1.02;;
50779;SDS011;36748;37.428;-121.972;2023-03-20T10:52:34;1.27;;;1.08;;
50779;SDS011;36748;37.428;-121.972;2023-03-20T10:57:34;1.00;;;0.75;;
50779;SDS011;36748;37.428;-121.972;2023-03-20T11:00:06;1.30;;;1.00;;
50779;SDS011;36748;37.428;-121.972;2023-03-20T11:02:46;1.70;;;0.95;;
50779;SDS011;36748;37.428;-121.972;2023-03-20T11:05:21;1.17;;;0.95;;
50779;SDS011;36748;37.428;-121.972;2023-03-20T11:07:59;1.10;;;0.80;;
50779;SDS011;36748;37.428;-121.972;2023-03-20T11:10:31;0.90;;;0.73;;
50779;SDS011;36748;37.428;-121.972;2023-03-20T11:12:58;1.20;;;1.05;;
50779;SDS011;36748;37.428;-121.972;2023-03-20T11:15:39;1.20;;;1.02;;
50779;SDS011;36748;37.428;-121.972;2023-03-20T11:18:06;1.08;;;0.88;;
50779;SDS011;36748;37.428;-121.972;2023-03-20T11:20:39;0.70;;;0.70;;
50779;SDS011;36748;37.428;-121.972;2023-03-20T11:23:16;1.00;;;0.73;;
50779;SDS011;36748;37.428;-121.972;2023-03-20T11:28:35;1.38;;;0.82;;
50779;SDS011;36748;37.428;-121.972;2023-03-20T11:33:52;1.27;;;1.10;;
50779;SDS011;36748;37.428;-121.972;2023-03-20T11:36:39;1.27;;;0.90;;
50779;SDS011;36748;37.428;-121.972;2023-03-20T11:41:47;1.15;;;0.70;;
50779;SDS011;36748;37.428;-121.972;2023-03-20T11:44:29;0.88;;;0.57;;
50779;SDS011;36748;37.428;-121.972;2023-03-20T11:46:59;0.80;;;0.60;;
50779;SDS011;36748;37.428;-121.972;2023-03-20T11:49:30;0.80;;;0.70;;
50779;SDS011;36748;37.428;-121.972;2023-03-20T11:51:59;1.20;;;0.82;;
50779;SDS011;36748;37.428;-121.972;2023-03-20T11:54:35;0.88;;;0.70;;
50779;SDS011;36748;37.428;-121.972;2023-03-20T11:57:02;0.80;;;0.70;;
50779;SDS011;36748;37.428;-121.972;2023-03-20T11:59:31;1.00;;;0.70;;
50779;SDS011;36748;37.428;-121.972;2023-03-20T12:02:00;1.38;;;0.73;;
50779;SDS011;36748;37.428;-121.972;2023-03-20T12:04:34;0.80;;;0.50;;
50779;SDS011;36748;37.428;-121.972;2023-03-20T12:07:10;0.52;;;0.52;;
50779;SDS011;36748;37.428;-121.972;2023-03-20T12:10:05;1.25;;;0.88;;
50779;SDS011;36748;37.428;-121.972;2023-03-20T12:12:43;0.68;;;0.68;;
50779;SDS011;36748;37.428;-121.972;2023-03-20T12:18:16;0.80;;;0.63;;
50779;SDS011;36748;37.428;-121.972;2023-03-20T12:25:39;0.68;;;0.43;;
50779;SDS011;36748;37.428;-121.972;2023-03-20T12:28:31;1.40;;;0.50;;
50779;SDS011;36748;37.428;-121.972;2023-03-20T12:36:30;0.77;;;0.60;;
50779;SDS011;36748;37.428;-121.972;2023-03-20T12:39:01;0.32;;;0.30;;
50779;SDS011;36748;37.428;-121.972;2023-03-20T12:41:33;0.98;;;0.60;;
50779;SDS011;36748;37.428;-121.972;2023-03-20T12:47:10;0.98;;;0.55;;
50779;SDS011;36748;37.428;-121.972;2023-03-20T12:55:21;0.68;;;0.38;;
50779;SDS011;36748;37.428;-121.972;2023-03-20T13:00:47;0.80;;;0.50;;
50779;SDS011;36748;37.428;-121.972;2023-03-20T13:06:00;1.50;;;0.60;;
50779;SDS011;36748;37.428;-121.972;2023-03-20T13:11:29;0.70;;;0.50;;
50779;SDS011;36748;37.428;-121.972;2023-03-20T13:14:03;0.57;;;0.40;;
50779;SDS011;36748;37.428;-121.972;2023-03-20T13:19:11;0.33;;;0.30;;
50779;SDS011;36748;37.428;-121.972;2023-03-20T13:24:34;0.35;;;0.30;;
50779;SDS011;36748;37.428;-121.972;2023-03-20T13:37:53;1.02;;;0.50;;
50779;SDS011;36748;37.428;-121.972;2023-03-20T13:45:38;0.63;;;0.40;;
50779;SDS011;36748;37.428;-121.972;2023-03-20T14:02:13;0.52;;;0.40;;
50779;SDS011;36748;37.428;-121.972;2023-03-20T14:04:54;0.68;;;0.38;;
50779;SDS011;36748;37.428;-121.972;2023-03-20T14:07:35;0.85;;;0.43;;
50779;SDS011;36748;37.428;-121.972;2023-03-20T14:12:48;0.50;;;0.28;;
50779;SDS011;36748;37.428;-121.972;2023-03-20T14:15:18;0.50;;;0.40;;
50779;SDS011;36748;37.428;-121.972;2023-03-20T14:17:46;0.52;;;0.32;;
50779;SDS011;36748;37.428;-121.972;2023-03-20T14:20:27;0.75;;;0.20;;
50779;SDS011;36748;37.428;-121.972;2023-03-20T14:22:57;0.52;;;0.28;;
50779;SDS011;36748;37.428;-121.972;2023-03-20T14:25:23;0.75;;;0.40;;
50779;SDS011;36748;37.428;-121.972;2023-03-20T14:27:54;0.90;;;0.30;;
50779;SDS011;36748;37.428;-121.972;2023-03-20T14:32:58;1.08;;;0.35;;
50779;SDS011;36748;37.428;-121.972;2023-03-20T14:35:40;4.90;;;0.20;;
50779;SDS011;36748;37.428;-121.972;2023-03-20T14:41:14;33.28;;;3.70;;
50779;SDS011;36748;37.428;-121.972;2023-03-20T14:44:01;34.30;;;5.85;;
50779;SDS011;36748;37.428;-121.972;2023-03-20T14:51:57;31.38;;;5.43;;
50779;SDS011;36748;37.428;-121.972;2023-03-20T14:54:28;27.40;;;5.07;;
50779;SDS011;36748;37.428;-121.972;2023-03-20T14:57:06;18.83;;;4.60;;
50779;SDS011;36748;37.428;-121.972;2023-03-20T14:59:41;24.30;;;5.25;;
50779;SDS011;36748;37.428;-121.972;2023-03-20T15:02:21;22.27;;;4.65;;
50779;SDS011;36748;37.428;-121.972;2023-03-20T15:04:52;17.55;;;4.68;;
50779;SDS011;36748;37.428;-121.972;2023-03-20T15:07:26;18.73;;;5.00;;
50779;SDS011;36748;37.428;-121.972;2023-03-20T15:09:55;21.50;;;4.85;;
50779;SDS011;36748;37.428;-121.972;2023-03-20T15:12:25;21.52;;;4.40;;
50779;SDS011;36748;37.428;-121.972;2023-03-20T15:14:54;14.23;;;4.47;;
50779;SDS011;36748;37.428;-121.972;2023-03-20T15:17:23;19.90;;;4.32;;
50779;SDS011;36748;37.428;-121.972;2023-03-20T15:19:57;14.52;;;4.30;;
50779;SDS011;36748;37.428;-121.972;2023-03-20T15:22:55;20.52;;;4.88;;
50779;SDS011;36748;37.428;-121.972;2023-03-20T15:25:23;21.10;;;4.30;;
50779;SDS011;36748;37.428;-121.972;2023-03-20T15:27:54;25.90;;;4.90;;
50779;SDS011;36748;37.428;-121.972;2023-03-20T15:30:20;17.92;;;4.60;;
50779;SDS011;36748;37.428;-121.972;2023-03-20T15:32:47;20.25;;;4.60;;
50779;SDS011;36748;37.428;-121.972;2023-03-20T15:35:18;19.27;;;4.45;;
50779;SDS011;36748;37.428;-121.972;2023-03-20T15:37:47;16.77;;;4.53;;
50779;SDS011;36748;37.428;-121.972;2023-03-20T15:40:28;20.15;;;4.72;;
50779;SDS011;36748;37.428;-121.972;2023-03-20T15:43:41;21.13;;;5.20;;
50779;SDS011;36748;37.428;-121.972;2023-03-20T15:45:47;18.42;;;4.47;;
50779;SDS011;36748;37.428;-121.972;2023-03-20T15:48:18;25.13;;;4.90;;
50779;SDS011;36748;37.428;-121.972;2023-03-20T15:50:56;23.85;;;5.70;;
50779;SDS011;36748;37.428;-121.972;2023-03-20T15:53:41;17.85;;;4.10;;
50779;SDS011;36748;37.428;-121.972;2023-03-20T15:56:12;21.02;;;5.03;;
50779;SDS011;36748;37.428;-121.972;2023-03-20T15:58:42;23.35;;;5.57;;
50779;SDS011;36748;37.428;-121.972;2023-03-20T16:01:10;24.77;;;4.72;;
50779;SDS011;36748;37.428;-121.972;2023-03-20T16:03:42;23.50;;;5.15;;
50779;SDS011;36748;37.428;-121.972;2023-03-20T16:06:10;29.73;;;6.00;;
50779;SDS011;36748;37.428;-121.972;2023-03-20T16:08:38;24.48;;;5.05;;
50779;SDS011;36748;37.428;-121.972;2023-03-20T16:11:05;21.15;;;4.78;;
50779;SDS011;36748;37.428;-121.972;2023-03-20T16:13:40;21.88;;;4.65;;
50779;SDS011;36748;37.428;-121.972;2023-03-20T16:16:17;25.75;;;4.88;;
50779;SDS011;36748;37.428;-121.972;2023-03-20T16:18:48;21.92;;;4.65;;
50779;SDS011;36748;37.428;-121.972;2023-03-20T16:21:25;23.27;;;4.43;;
50779;SDS011;36748;37.428;-121.972;2023-03-20T16:23:55;23.45;;;5.35;;
50779;SDS011;36748;37.428;-121.972;2023-03-20T16:26:23;28.40;;;4.95;;
50779;SDS011;36748;37.428;-121.972;2023-03-20T16:28:55;32.33;;;4.82;;
50779;SDS011;36748;37.428;-121.972;2023-03-20T16:31:56;22.23;;;5.10;;
50779;SDS011;36748;37.428;-121.972;2023-03-20T16:34:23;19.23;;;4.30;;
50779;SDS011;36748;37.428;-121.972;2023-03-20T16:36:55;23.23;;;4.88;;
50779;SDS011;36748;37.428;-121.972;2023-03-20T16:39:25;20.60;;;4.45;;
50779;SDS011;36748;37.428;-121.972;2023-03-20T16:42:01;15.23;;;3.97;;
50779;SDS011;36748;37.428;-121.972;2023-03-20T16:44:35;24.75;;;4.95;;
50779;SDS011;36748;37.428;-121.972;2023-03-20T16:47:14;16.95;;;4.18;;
50779;SDS011;36748;37.428;-121.972;2023-03-20T16:52:24;19.73;;;4.35;;
50779;SDS011;36748;37.428;-121.972;2023-03-20T16:54:52;16.85;;;4.25;;
50779;SDS011;36748;37.428;-121.972;2023-03-20T16:57:21;18.42;;;4.68;;
50779;SDS011;36748;37.428;-121.972;2023-03-20T16:59:48;25.52;;;4.03;;
50779;SDS011;36748;37.428;-121.972;2023-03-20T17:02:29;22.35;;;4.28;;